Time;durP1;ratioP1;P1;durP2;ratioP2;P2;SDS_P1;SDS_P2;PMS_P1;PMS_P2;Temp;Humidity;BMP_temperature;BMP_pressure;BME280_temperature;BME280_humidity;BME280_pressure;Samples;Min_cycle;Max_cycle;Signal;HPM_P1;HPM_P2
2022/03/12 00:02:16;;;;;;;2.28;2.08;;;;;;;;;;5018516;28;20199;-81
2022/03/12 00:04:44;;;;;;;3.78;2.53;;;;;;;;;;5016893;28;20921;-82
2022/03/12 00:07:12;;;;;;;4.72;2.67;;;;;;;;;;5020133;28;20210;-81
2022/03/12 00:09:39;;;;;;;3.40;2.03;;;;;;;;;;5016210;28;20172;-83
2022/03/12 00:12:05;;;;;;;2.92;2.40;;;;;;;;;;4999660;28;20198;-82
2022/03/12 00:14:36;;;;;;;4.70;2.63;;;;;;;;;;5002060;28;20187;-82
2022/03/12 00:17:03;;;;;;;2.80;1.90;;;;;;;;;;4988996;28;20262;-81
2022/03/12 00:19:31;;;;;;;1.88;1.73;;;;;;;;;;5019040;28;22365;-81
2022/03/12 00:22:03;;;;;;;5.82;2.40;;;;;;;;;;5004841;28;20175;-81
2022/03/12 00:24:29;;;;;;;6.57;2.88;;;;;;;;;;5014117;28;20226;-82
2022/03/12 00:27:00;;;;;;;5.82;3.20;;;;;;;;;;5003363;28;20209;-81
2022/03/12 00:29:26;;;;;;;4.10;2.58;;;;;;;;;;5002534;28;20466;-82
2022/03/12 00:31:53;;;;;;;4.50;2.97;;;;;;;;;;5003215;28;20727;-82
2022/03/12 00:34:19;;;;;;;5.00;2.25;;;;;;;;;;5003714;28;20171;-82
2022/03/12 00:36:45;;;;;;;3.38;1.90;;;;;;;;;;5004376;28;20194;-82
2022/03/12 00:39:12;;;;;;;5.22;2.45;;;;;;;;;;5013917;28;20223;-81
2022/03/12 00:41:38;;;;;;;5.90;2.78;;;;;;;;;;5017687;28;20189;-81
2022/03/12 00:44:05;;;;;;;6.28;2.35;;;;;;;;;;5003161;28;20270;-81
2022/03/12 00:46:31;;;;;;;4.47;2.17;;;;;;;;;;5016854;28;20202;-82
2022/03/12 00:48:57;;;;;;;3.25;2.63;;;;;;;;;;5019444;28;20171;-81
2022/03/12 00:51:23;;;;;;;4.97;2.23;;;;;;;;;;5003052;28;20179;-82
2022/03/12 00:53:49;;;;;;;3.85;2.95;;;;;;;;;;5014047;28;20438;-82
2022/03/12 00:56:15;;;;;;;4.80;2.60;;;;;;;;;;5002973;28;20187;-82
2022/03/12 00:58:45;;;;;;;5.38;2.13;;;;;;;;;;5016609;28;20445;-84
2022/03/12 01:01:12;;;;;;;6.43;2.65;;;;;;;;;;5017695;28;20186;-82
2022/03/12 01:03:38;;;;;;;4.88;3.05;;;;;;;;;;4993791;28;20176;-82
2022/03/12 01:06:05;;;;;;;5.57;2.50;;;;;;;;;;5000237;28;20217;-82
2022/03/12 01:08:32;;;;;;;3.05;2.25;;;;;;;;;;5019171;28;20437;-81
2022/03/12 01:11:00;;;;;;;2.80;2.50;;;;;;;;;;4993031;28;20186;-83
2022/03/12 01:13:27;;;;;;;7.50;2.75;;;;;;;;;;5021758;28;20174;-81
2022/03/12 01:15:53;;;;;;;4.53;2.85;;;;;;;;;;5022164;28;20179;-81
2022/03/12 01:18:20;;;;;;;6.00;2.90;;;;;;;;;;5017630;28;20200;-82
2022/03/12 01:20:46;;;;;;;4.13;2.80;;;;;;;;;;5006296;28;20194;-82
2022/03/12 01:23:13;;;;;;;7.18;3.17;;;;;;;;;;5017900;28;20186;-82
2022/03/12 01:25:40;;;;;;;5.95;3.15;;;;;;;;;;5006779;28;20210;-81
2022/03/12 01:28:07;;;;;;;4.78;2.67;;;;;;;;;;5022664;28;20732;-81
2022/03/12 01:30:34;;;;;;;5.03;2.40;;;;;;;;;;5012727;28;20651;-81
2022/03/12 01:33:00;;;;;;;4.13;2.30;;;;;;;;;;4998918;28;20237;-81
2022/03/12 01:35:26;;;;;;;3.90;2.17;;;;;;;;;;4996996;28;20175;-83
2022/03/12 01:37:52;;;;;;;6.45;2.63;;;;;;;;;;5019261;28;20446;-81
2022/03/12 01:40:19;;;;;;;4.05;2.55;;;;;;;;;;5006666;28;20219;-82
2022/03/12 01:42:45;;;;;;;9.05;2.97;;;;;;;;;;5021783;28;20183;-81
2022/03/12 01:45:13;;;;;;;2.38;2.05;;;;;;;;;;5005427;28;20234;-82
2022/03/12 01:47:40;;;;;;;4.47;2.30;;;;;;;;;;5005304;28;20190;-81
2022/03/12 01:50:07;;;;;;;4.88;2.25;;;;;;;;;;5017259;28;20195;-81
2022/03/12 01:52:33;;;;;;;3.33;2.10;;;;;;;;;;5022024;28;20199;-81
2022/03/12 01:54:59;;;;;;;4.25;2.00;;;;;;;;;;5018491;28;20182;-80
2022/03/12 01:57:25;;;;;;;5.55;2.55;;;;;;;;;;5035707;28;20219;-81
2022/03/12 01:59:51;;;;;;;4.97;2.60;;;;;;;;;;5005849;28;20687;-81
2022/03/12 02:02:18;;;;;;;3.50;2.70;;;;;;;;;;4999476;28;20356;-81
2022/03/12 02:04:51;;;;;;;8.93;3.38;;;;;;;;;;4989532;28;20253;-81
2022/03/12 02:07:18;;;;;;;5.03;2.63;;;;;;;;;;5006433;28;20184;-81
2022/03/12 02:09:44;;;;;;;4.07;2.45;;;;;;;;;;5018695;28;20191;-81
2022/03/12 02:12:11;;;;;;;3.92;2.00;;;;;;;;;;5008475;28;20192;-82
2022/03/12 02:14:37;;;;;;;8.48;2.33;;;;;;;;;;4994329;28;20239;-81
2022/03/12 02:17:07;;;;;;;3.83;2.40;;;;;;;;;;5002338;28;20278;-81
2022/03/12 02:19:33;;;;;;;6.18;2.50;;;;;;;;;;4996721;28;20191;-82
2022/03/12 02:22:03;;;;;;;3.05;2.47;;;;;;;;;;5019502;28;20191;-82
2022/03/12 02:24:30;;;;;;;3.60;2.90;;;;;;;;;;5005125;28;20207;-82
2022/03/12 02:26:58;;;;;;;3.50;2.55;;;;;;;;;;5004820;28;20187;-82
2022/03/12 02:29:24;;;;;;;3.35;2.58;;;;;;;;;;5014832;28;20249;-82
2022/03/12 02:31:56;;;;;;;9.57;3.22;;;;;;;;;;4996266;28;20661;-82
2022/03/12 02:34:23;;;;;;;3.80;2.97;;;;;;;;;;5005754;28;20178;-80
2022/03/12 02:36:51;;;;;;;7.60;2.65;;;;;;;;;;5006901;28;20191;-83
2022/03/12 02:39:17;;;;;;;5.18;2.65;;;;;;;;;;4996729;28;20243;-81
2022/03/12 02:41:43;;;;;;;3.67;2.45;;;;;;;;;;4996531;28;20186;-82
2022/03/12 02:44:16;;;;;;;7.22;2.63;;;;;;;;;;5003994;28;20401;-81
2022/03/12 02:46:42;;;;;;;9.00;3.25;;;;;;;;;;5000998;28;20183;-81
2022/03/12 02:49:08;;;;;;;5.93;2.83;;;;;;;;;;5006079;28;20175;-81
2022/03/12 02:51:37;;;;;;;4.43;2.55;;;;;;;;;;5015107;28;20198;-82
2022/03/12 02:54:04;;;;;;;5.72;2.40;;;;;;;;;;5017907;28;20193;-81
2022/03/12 02:56:30;;;;;;;5.70;2.75;;;;;;;;;;5019890;28;20179;-81
2022/03/12 02:58:56;;;;;;;7.78;2.78;;;;;;;;;;5017688;28;20547;-81
2022/03/12 03:01:26;;;;;;;4.68;2.90;;;;;;;;;;5004598;28;20179;-81
2022/03/12 03:03:53;;;;;;;4.85;3.38;;;;;;;;;;5005398;28;20182;-81
2022/03/12 03:06:20;;;;;;;7.15;2.13;;;;;;;;;;5020077;28;20183;-82
2022/03/12 03:08:46;;;;;;;5.43;3.25;;;;;;;;;;5003950;28;20695;-81
2022/03/12 03:11:15;;;;;;;4.35;2.58;;;;;;;;;;5015623;28;20247;-81
2022/03/12 03:13:44;;;;;;;6.47;2.38;;;;;;;;;;5003529;28;20186;-82
2022/03/12 03:16:21;;;;;;;3.65;2.35;;;;;;;;;;5018654;28;20175;-81
2022/03/12 03:18:51;;;;;;;4.68;2.70;;;;;;;;;;5020534;28;20167;-81
2022/03/12 03:21:18;;;;;;;6.65;2.50;;;;;;;;;;5014931;28;20179;-81
2022/03/12 03:23:45;;;;;;;4.60;2.30;;;;;;;;;;5013836;28;20187;-81
2022/03/12 03:26:11;;;;;;;6.43;2.58;;;;;;;;;;5015379;28;20180;-81
2022/03/12 03:28:37;;;;;;;7.35;3.25;;;;;;;;;;4989322;28;20190;-81
2022/03/12 03:31:06;;;;;;;5.70;3.20;;;;;;;;;;5016620;28;20656;-81
2022/03/12 03:33:32;;;;;;;3.75;2.40;;;;;;;;;;5019048;28;20210;-81
2022/03/12 03:35:58;;;;;;;4.70;2.78;;;;;;;;;;5014388;28;20194;-81
2022/03/12 03:38:24;;;;;;;5.22;2.78;;;;;;;;;;5014106;28;20191;-82
2022/03/12 03:40:50;;;;;;;6.20;2.70;;;;;;;;;;5004056;28;20179;-81
2022/03/12 03:43:18;;;;;;;2.97;2.50;;;;;;;;;;5019472;28;20237;-80
2022/03/12 03:45:46;;;;;;;7.05;3.65;;;;;;;;;;5019429;28;20211;-80
2022/03/12 03:48:13;;;;;;;8.38;3.00;;;;;;;;;;5014177;28;20183;-81
2022/03/12 03:50:40;;;;;;;3.30;2.10;;;;;;;;;;5015922;28;20265;-81
2022/03/12 03:53:06;;;;;;;8.63;3.40;;;;;;;;;;4989787;28;20189;-82
2022/03/12 03:55:32;;;;;;;5.03;3.00;;;;;;;;;;5003361;28;20286;-81
2022/03/12 03:57:59;;;;;;;5.53;3.35;;;;;;;;;;5020587;28;20183;-81
2022/03/12 04:00:25;;;;;;;2.55;1.95;;;;;;;;;;5014942;28;20255;-81
2022/03/12 04:03:04;;;;;;;13.25;3.78;;;;;;;;;;5002878;28;20198;-81
2022/03/12 04:05:37;;;;;;;7.97;2.67;;;;;;;;;;5000810;28;20222;-80
2022/03/12 04:08:07;;;;;;;4.95;2.72;;;;;;;;;;4994778;28;20187;-82
2022/03/12 04:10:34;;;;;;;8.52;3.45;;;;;;;;;;5019020;28;20265;-81
2022/03/12 04:13:00;;;;;;;7.95;3.58;;;;;;;;;;5020291;28;20175;-81
2022/03/12 04:15:26;;;;;;;5.47;2.92;;;;;;;;;;5002320;28;20225;-81
2022/03/12 04:17:54;;;;;;;4.15;2.75;;;;;;;;;;5003862;28;20242;-81
2022/03/12 04:20:20;;;;;;;7.20;2.53;;;;;;;;;;5012801;28;20206;-81
2022/03/12 04:22:50;;;;;;;7.63;2.90;;;;;;;;;;4994389;28;20334;-81
2022/03/12 04:25:17;;;;;;;6.45;2.70;;;;;;;;;;5017426;28;20347;-81
2022/03/12 04:27:44;;;;;;;4.50;2.40;;;;;;;;;;5019158;28;20278;-82
2022/03/12 04:30:11;;;;;;;7.35;3.25;;;;;;;;;;5001357;28;20187;-81
2022/03/12 04:32:37;;;;;;;9.30;2.30;;;;;;;;;;5000933;28;20380;-80
2022/03/12 04:35:05;;;;;;;8.70;2.77;;;;;;;;;;5009435;28;20183;-81
2022/03/12 04:37:31;;;;;;;5.50;2.65;;;;;;;;;;5017049;28;20549;-82
2022/03/12 04:39:57;;;;;;;7.50;2.95;;;;;;;;;;4997774;28;20219;-81
2022/03/12 04:42:23;;;;;;;8.18;3.17;;;;;;;;;;4992458;28;20191;-81
2022/03/12 04:44:50;;;;;;;9.52;2.85;;;;;;;;;;4996418;28;20215;-82
2022/03/12 04:47:18;;;;;;;7.97;3.03;;;;;;;;;;4995540;28;20712;-82
2022/03/12 04:49:44;;;;;;;10.00;2.83;;;;;;;;;;5003116;28;20182;-81
2022/03/12 04:52:11;;;;;;;4.22;2.88;;;;;;;;;;5002406;28;20172;-81
2022/03/12 04:54:37;;;;;;;6.38;3.08;;;;;;;;;;4999576;28;20184;-81
2022/03/12 04:57:04;;;;;;;5.78;3.13;;;;;;;;;;4994173;28;20612;-82
2022/03/12 04:59:30;;;;;;;7.22;3.30;;;;;;;;;;4994800;28;20205;-82
2022/03/12 05:01:57;;;;;;;8.00;2.90;;;;;;;;;;5014787;28;20569;-82
2022/03/12 05:04:23;;;;;;;10.57;2.85;;;;;;;;;;5016695;28;20198;-81
2022/03/12 05:06:49;;;;;;;7.15;2.53;;;;;;;;;;4990482;28;20183;-82
2022/03/12 05:09:15;;;;;;;9.18;3.05;;;;;;;;;;4998152;28;20271;-81
2022/03/12 05:11:41;;;;;;;14.20;3.65;;;;;;;;;;5002310;28;20214;-81
2022/03/12 05:14:10;;;;;;;6.05;2.28;;;;;;;;;;5002358;28;20183;-81
2022/03/12 05:16:38;;;;;;;6.15;2.58;;;;;;;;;;4984138;28;20194;-81
2022/03/12 05:19:06;;;;;;;3.85;2.58;;;;;;;;;;5018587;28;20179;-81
2022/03/12 05:21:32;;;;;;;3.38;2.53;;;;;;;;;;5003065;28;20187;-80
2022/03/12 05:23:58;;;;;;;4.50;2.20;;;;;;;;;;4995137;28;20214;-82
2022/03/12 05:26:24;;;;;;;9.05;3.03;;;;;;;;;;4998442;28;20612;-81
2022/03/12 05:28:50;;;;;;;4.28;2.63;;;;;;;;;;5002735;28;20250;-81
2022/03/12 05:31:17;;;;;;;5.75;2.53;;;;;;;;;;5002688;28;20184;-81
2022/03/12 05:33:44;;;;;;;9.57;3.15;;;;;;;;;;5018334;28;20167;-81
2022/03/12 05:36:10;;;;;;;7.13;3.33;;;;;;;;;;5003049;28;20175;-81
2022/03/12 05:38:37;;;;;;;10.48;3.25;;;;;;;;;;5009744;28;20212;-81
2022/03/12 05:41:11;;;;;;;10.05;3.47;;;;;;;;;;4990945;28;20175;-81
2022/03/12 05:43:42;;;;;;;7.78;3.25;;;;;;;;;;5002646;28;20183;-81
2022/03/12 05:46:09;;;;;;;5.38;2.90;;;;;;;;;;5017155;28;20190;-81
2022/03/12 05:48:35;;;;;;;8.70;2.85;;;;;;;;;;5017214;28;20187;-81
2022/03/12 05:51:01;;;;;;;5.35;2.47;;;;;;;;;;5015654;28;20198;-81
2022/03/12 05:53:27;;;;;;;5.13;2.90;;;;;;;;;;5022070;28;20557;-80
2022/03/12 05:55:53;;;;;;;4.93;3.22;;;;;;;;;;5013902;28;20243;-81
2022/03/12 05:58:19;;;;;;;5.03;2.75;;;;;;;;;;5021516;28;20239;-81
2022/03/12 06:00:46;;;;;;;10.10;3.28;;;;;;;;;;5022046;28;20210;-81
2022/03/12 06:03:12;;;;;;;9.80;3.83;;;;;;;;;;5015031;28;20533;-81
2022/03/12 06:05:42;;;;;;;7.57;3.15;;;;;;;;;;5013923;28;20349;-81
2022/03/12 06:08:09;;;;;;;4.28;3.28;;;;;;;;;;5021362;28;20791;-81
2022/03/12 06:10:37;;;;;;;6.30;3.05;;;;;;;;;;5021266;28;20265;-81
2022/03/12 06:13:06;;;;;;;9.38;3.47;;;;;;;;;;5022376;28;20179;-81
2022/03/12 06:15:34;;;;;;;4.78;2.80;;;;;;;;;;5015659;28;20205;-81
2022/03/12 06:18:00;;;;;;;6.93;3.47;;;;;;;;;;4997373;28;20223;-81
2022/03/12 06:20:26;;;;;;;5.70;3.53;;;;;;;;;;4999705;28;20183;-81
2022/03/12 06:22:55;;;;;;;6.75;4.03;;;;;;;;;;5005189;28;20187;-81
2022/03/12 06:25:22;;;;;;;6.25;3.13;;;;;;;;;;5020973;28;20222;-81
2022/03/12 06:27:53;;;;;;;8.40;3.08;;;;;;;;;;5017619;28;20685;-81
2022/03/12 06:30:20;;;;;;;3.47;3.05;;;;;;;;;;5018965;28;20197;-81
2022/03/12 06:32:47;;;;;;;3.65;2.65;;;;;;;;;;4998230;28;20223;-81
2022/03/12 06:35:14;;;;;;;5.75;3.67;;;;;;;;;;4992450;28;20233;-82
2022/03/12 06:37:40;;;;;;;6.53;3.70;;;;;;;;;;5018923;28;20194;-81
2022/03/12 06:40:08;;;;;;;8.68;5.20;;;;;;;;;;5006600;28;20219;-81
2022/03/12 06:42:34;;;;;;;7.13;2.92;;;;;;;;;;5009390;28;20281;-81
2022/03/12 06:45:00;;;;;;;3.95;3.00;;;;;;;;;;5002991;28;20249;-81
2022/03/12 06:47:30;;;;;;;6.85;3.20;;;;;;;;;;5000111;28;20207;-81
2022/03/12 06:49:58;;;;;;;7.07;2.70;;;;;;;;;;4990744;28;20206;-80
2022/03/12 06:52:25;;;;;;;4.88;3.60;;;;;;;;;;5003554;28;20314;-81
2022/03/12 06:54:54;;;;;;;4.97;4.25;;;;;;;;;;5004362;28;20193;-81
2022/03/12 06:57:20;;;;;;;4.32;3.00;;;;;;;;;;5010537;28;20195;-81
2022/03/12 06:59:47;;;;;;;3.88;3.10;;;;;;;;;;4999035;28;20194;-81
2022/03/12 07:02:13;;;;;;;11.63;4.38;;;;;;;;;;4991316;28;20259;-80
2022/03/12 07:04:39;;;;;;;6.13;4.03;;;;;;;;;;5019203;28;20237;-81
2022/03/12 07:07:05;;;;;;;8.10;4.95;;;;;;;;;;5020992;28;20176;-81
2022/03/12 07:09:31;;;;;;;8.20;5.00;;;;;;;;;;5015125;28;20281;-81
2022/03/12 07:11:58;;;;;;;7.00;4.97;;;;;;;;;;5003348;28;20183;-81
2022/03/12 07:14:24;;;;;;;4.15;3.47;;;;;;;;;;4999049;28;20217;-81
2022/03/12 07:16:51;;;;;;;4.13;3.72;;;;;;;;;;5016415;28;20289;-80
2022/03/12 07:19:17;;;;;;;4.03;3.63;;;;;;;;;;5002312;28;20202;-81
2022/03/12 07:21:42;;;;;;;4.28;3.88;;;;;;;;;;5022517;28;20186;-81
2022/03/12 07:24:08;;;;;;;3.65;3.08;;;;;;;;;;4996067;28;20207;-81
2022/03/12 07:26:34;;;;;;;6.43;3.58;;;;;;;;;;4994397;28;20676;-81
2022/03/12 07:29:00;;;;;;;6.37;2.43;;;;;;;;;;5004961;28;20318;-81
2022/03/12 07:31:27;;;;;;;3.03;2.63;;;;;;;;;;5018371;28;20418;-81
2022/03/12 07:33:53;;;;;;;3.53;2.97;;;;;;;;;;5017491;28;20502;-81
2022/03/12 07:36:19;;;;;;;3.22;2.92;;;;;;;;;;5016167;28;20190;-81
2022/03/12 07:38:45;;;;;;;3.13;2.40;;;;;;;;;;5003603;28;20229;-81
2022/03/12 07:41:12;;;;;;;6.00;3.47;;;;;;;;;;5015015;28;20334;-81
2022/03/12 07:43:38;;;;;;;5.45;2.65;;;;;;;;;;5016061;28;20242;-81
2022/03/12 07:46:05;;;;;;;3.28;2.28;;;;;;;;;;5018240;28;20214;-82
2022/03/12 07:48:31;;;;;;;2.10;1.90;;;;;;;;;;4999928;28;20187;-81
2022/03/12 07:50:59;;;;;;;3.78;2.60;;;;;;;;;;4995610;28;20251;-81
2022/03/12 07:53:25;;;;;;;3.28;3.08;;;;;;;;;;4991756;28;20704;-82
2022/03/12 07:55:51;;;;;;;4.40;2.60;;;;;;;;;;5002339;28;20248;-81
2022/03/12 07:58:18;;;;;;;3.47;2.50;;;;;;;;;;5003807;28;20222;-83
2022/03/12 08:00:44;;;;;;;3.47;2.05;;;;;;;;;;5019597;28;20187;-80
2022/03/12 08:03:11;;;;;;;4.38;2.25;;;;;;;;;;5004153;28;20201;-81
2022/03/12 08:05:38;;;;;;;3.30;1.70;;;;;;;;;;5000209;28;20205;-80
2022/03/12 08:08:04;;;;;;;5.53;2.58;;;;;;;;;;5017389;28;20190;-80
2022/03/12 08:11:24;;;;;;;3.08;1.85;;;;;;;;;;5000552;28;20199;-81
2022/03/12 08:13:20;;;;;;;3.47;2.20;;;;;;;;;;4998957;28;20234;-82
2022/03/12 08:15:46;;;;;;;4.85;2.05;;;;;;;;;;5000400;28;20187;-81
2022/03/12 08:18:12;;;;;;;4.70;1.90;;;;;;;;;;5003235;28;20225;-81
2022/03/12 08:20:38;;;;;;;2.13;1.90;;;;;;;;;;5014188;28;20434;-81
2022/03/12 08:23:05;;;;;;;6.88;2.20;;;;;;;;;;5015010;28;20205;-81
2022/03/12 08:25:31;;;;;;;6.55;2.70;;;;;;;;;;5000619;28;20391;-81
2022/03/12 08:27:57;;;;;;;7.13;2.90;;;;;;;;;;5017642;28;20182;-80
2022/03/12 08:30:23;;;;;;;4.93;2.15;;;;;;;;;;5002113;28;20214;-81
2022/03/12 08:32:49;;;;;;;4.10;2.13;;;;;;;;;;4997324;28;20203;-81
2022/03/12 08:35:16;;;;;;;3.70;2.10;;;;;;;;;;5001113;28;20400;-81
2022/03/12 08:37:42;;;;;;;3.45;2.28;;;;;;;;;;5000924;28;20198;-82
2022/03/12 08:40:10;;;;;;;3.25;2.00;;;;;;;;;;5015165;28;20261;-80
2022/03/12 08:42:36;;;;;;;5.50;2.30;;;;;;;;;;4991130;28;20541;-81
2022/03/12 08:45:03;;;;;;;7.95;2.40;;;;;;;;;;4999265;28;20211;-81
2022/03/12 08:47:29;;;;;;;3.83;2.08;;;;;;;;;;4997987;28;20211;-81
2022/03/12 08:49:55;;;;;;;3.30;2.42;;;;;;;;;;4985525;28;20305;-81
2022/03/12 08:52:22;;;;;;;7.45;3.05;;;;;;;;;;4985012;28;20191;-80
2022/03/12 08:54:48;;;;;;;2.90;2.45;;;;;;;;;;5017866;28;20221;-80
2022/03/12 08:57:14;;;;;;;3.92;1.75;;;;;;;;;;5001792;28;20242;-81
2022/03/12 08:59:40;;;;;;;3.67;1.98;;;;;;;;;;5001291;28;20198;-81
2022/03/12 09:02:06;;;;;;;3.58;2.38;;;;;;;;;;5002889;28;20195;-81
2022/03/12 09:04:34;;;;;;;15.98;2.50;;;;;;;;;;5018379;28;20210;-79
2022/03/12 09:07:00;;;;;;;3.65;2.65;;;;;;;;;;5004468;28;20206;-82
2022/03/12 09:09:26;;;;;;;3.28;2.20;;;;;;;;;;5001909;28;20353;-80
2022/03/12 09:11:52;;;;;;;7.15;2.25;;;;;;;;;;4999290;28;20179;-81
2022/03/12 09:14:18;;;;;;;2.40;1.73;;;;;;;;;;5001162;28;20187;-82
2022/03/12 09:16:44;;;;;;;2.25;2.00;;;;;;;;;;5015156;28;20963;-81
2022/03/12 09:19:10;;;;;;;4.10;2.03;;;;;;;;;;5001628;28;20183;-80
2022/03/12 09:21:37;;;;;;;3.88;2.30;;;;;;;;;;5017526;28;20186;-81
2022/03/12 09:24:03;;;;;;;2.78;1.90;;;;;;;;;;5001011;28;20259;-81
2022/03/12 09:26:29;;;;;;;3.47;2.47;;;;;;;;;;5019577;28;20186;-80
2022/03/12 09:28:55;;;;;;;3.28;2.22;;;;;;;;;;5004109;28;20262;-81
2022/03/12 09:31:24;;;;;;;2.42;2.22;;;;;;;;;;5009634;28;20175;-80
2022/03/12 09:33:50;;;;;;;3.55;2.35;;;;;;;;;;5006508;28;20183;-80
2022/03/12 09:36:16;;;;;;;4.37;2.03;;;;;;;;;;5003736;28;20183;-80
2022/03/12 09:38:42;;;;;;;5.50;2.00;;;;;;;;;;5002631;28;20454;-81
2022/03/12 09:41:08;;;;;;;4.68;2.22;;;;;;;;;;5014929;28;20184;-80
2022/03/12 09:43:35;;;;;;;5.88;2.58;;;;;;;;;;5020771;28;20194;-80
2022/03/12 09:46:01;;;;;;;3.35;2.08;;;;;;;;;;5018343;28;20214;-80
2022/03/12 09:48:27;;;;;;;4.03;2.03;;;;;;;;;;5019581;28;20264;-81
2022/03/12 09:50:53;;;;;;;6.45;1.90;;;;;;;;;;5006228;28;20198;-80
2022/03/12 09:53:19;;;;;;;3.83;2.30;;;;;;;;;;5006813;28;20187;-81
2022/03/12 09:55:45;;;;;;;2.70;2.37;;;;;;;;;;5019105;28;20222;-81
2022/03/12 09:58:11;;;;;;;5.07;2.33;;;;;;;;;;5005587;28;20418;-80
2022/03/12 10:00:37;;;;;;;10.25;2.80;;;;;;;;;;5022410;28;20827;-81
2022/03/12 10:03:05;;;;;;;9.25;2.53;;;;;;;;;;5005839;28;20191;-80
2022/03/12 10:05:31;;;;;;;6.32;2.65;;;;;;;;;;5006369;28;20205;-81
2022/03/12 10:07:57;;;;;;;3.47;1.90;;;;;;;;;;5017827;28;20202;-81
2022/03/12 10:10:25;;;;;;;4.65;2.20;;;;;;;;;;5020792;28;20422;-80
2022/03/12 10:12:51;;;;;;;2.80;1.88;;;;;;;;;;5019007;28;20179;-80
2022/03/12 10:15:18;;;;;;;9.00;3.00;;;;;;;;;;5002247;28;20187;-81
2022/03/12 10:17:45;;;;;;;2.97;2.42;;;;;;;;;;5015469;28;20191;-80
2022/03/12 10:20:11;;;;;;;3.35;2.08;;;;;;;;;;5016296;28;20207;-81
2022/03/12 10:22:38;;;;;;;4.50;2.60;;;;;;;;;;5020319;28;20194;-80
2022/03/12 10:25:05;;;;;;;9.90;2.42;;;;;;;;;;4991982;28;20223;-81
2022/03/12 10:27:31;;;;;;;4.70;2.53;;;;;;;;;;4993412;28;20180;-81
2022/03/12 10:29:57;;;;;;;5.50;2.60;;;;;;;;;;4994729;28;20554;-80
2022/03/12 10:32:24;;;;;;;4.30;3.90;;;;;;;;;;4994358;28;20440;-79
2022/03/12 10:34:56;;;;;;;6.78;2.45;;;;;;;;;;5006154;28;20441;-79
2022/03/12 10:37:23;;;;;;;6.85;2.60;;;;;;;;;;4989095;28;20199;-79
2022/03/12 10:40:00;;;;;;;7.00;2.40;;;;;;;;;;5016746;28;20271;-78
2022/03/12 10:42:26;;;;;;;3.17;2.53;;;;;;;;;;5003482;28;20190;-78
2022/03/12 10:44:52;;;;;;;5.78;2.30;;;;;;;;;;5016789;28;20207;-79
2022/03/12 10:47:22;;;;;;;4.10;2.58;;;;;;;;;;5016000;28;20215;-78
2022/03/12 10:49:59;;;;;;;7.95;2.70;;;;;;;;;;5019412;28;20183;-78
2022/03/12 10:52:30;;;;;;;6.85;3.28;;;;;;;;;;5019935;28;20179;-78
2022/03/12 10:54:56;;;;;;;3.35;1.90;;;;;;;;;;5021107;28;20167;-79
2022/03/12 10:57:22;;;;;;;4.93;2.13;;;;;;;;;;5015634;28;20199;-79
2022/03/12 10:59:54;;;;;;;3.85;2.60;;;;;;;;;;5015748;28;20201;-79
2022/03/12 11:02:20;;;;;;;3.22;2.40;;;;;;;;;;5020035;28;20202;-78
2022/03/12 11:04:46;;;;;;;3.17;2.20;;;;;;;;;;5005445;28;20231;-78
2022/03/12 11:07:24;;;;;;;6.40;2.03;;;;;;;;;;5020234;28;20203;-78
2022/03/12 11:09:50;;;;;;;4.65;2.00;;;;;;;;;;5005031;28;20418;-79
2022/03/12 11:12:35;;;;;;;7.22;2.25;;;;;;;;;;5005200;28;20215;-79
2022/03/12 11:15:05;;;;;;;4.47;2.38;;;;;;;;;;5005242;28;20183;-79
2022/03/12 11:17:43;;;;;;;4.97;2.08;;;;;;;;;;5003122;28;20211;-79
2022/03/12 11:20:17;;;;;;;7.15;1.75;;;;;;;;;;5016227;28;20183;-79
2022/03/12 11:22:43;;;;;;;6.47;2.05;;;;;;;;;;5004120;28;20190;-78
2022/03/12 11:25:11;;;;;;;7.50;2.33;;;;;;;;;;5006030;28;20199;-78
2022/03/12 11:27:37;;;;;;;4.47;2.70;;;;;;;;;;5019699;28;20815;-78
2022/03/12 11:30:07;;;;;;;3.70;1.90;;;;;;;;;;5015462;28;20635;-78
2022/03/12 11:32:36;;;;;;;7.65;2.03;;;;;;;;;;5004168;28;20211;-79
2022/03/12 11:35:04;;;;;;;6.25;1.92;;;;;;;;;;5004376;28;20385;-78
2022/03/12 11:37:30;;;;;;;6.45;2.20;;;;;;;;;;5002698;28;28392;-78
2022/03/12 11:39:59;;;;;;;5.00;1.50;;;;;;;;;;5020112;28;20218;-78
2022/03/12 11:42:26;;;;;;;5.57;1.58;;;;;;;;;;5015051;28;20515;-78
2022/03/12 11:44:56;;;;;;;4.72;1.65;;;;;;;;;;5004121;28;20207;-78
2022/03/12 11:47:23;;;;;;;3.83;1.80;;;;;;;;;;5003120;28;20225;-78
2022/03/12 11:49:49;;;;;;;5.20;2.53;;;;;;;;;;5016808;28;20183;-78
2022/03/12 11:52:16;;;;;;;8.40;1.90;;;;;;;;;;5018112;28;20215;-78
2022/03/12 11:54:43;;;;;;;5.13;1.83;;;;;;;;;;5019875;28;20244;-78
2022/03/12 11:57:10;;;;;;;4.72;1.48;;;;;;;;;;5014204;28;20614;-78
2022/03/12 11:59:37;;;;;;;6.00;2.00;;;;;;;;;;5017814;28;20191;-78
2022/03/12 12:02:05;;;;;;;3.90;1.92;;;;;;;;;;5003260;28;20184;-78
2022/03/12 12:04:32;;;;;;;3.58;1.30;;;;;;;;;;5004256;28;20207;-78
2022/03/12 12:06:59;;;;;;;3.42;2.30;;;;;;;;;;5020211;28;20229;-78
2022/03/12 12:09:25;;;;;;;5.05;1.33;;;;;;;;;;5003316;28;20191;-78
2022/03/12 12:11:53;;;;;;;5.00;2.00;;;;;;;;;;5003885;28;20198;-77
2022/03/12 12:14:19;;;;;;;5.20;1.55;;;;;;;;;;5003845;28;20175;-78
2022/03/12 12:16:46;;;;;;;3.83;1.60;;;;;;;;;;4990708;28;24640;-77
2022/03/12 12:19:13;;;;;;;4.82;1.83;;;;;;;;;;5001227;28;20202;-77
2022/03/12 12:21:39;;;;;;;6.20;2.13;;;;;;;;;;5015998;28;20176;-77
2022/03/12 12:24:24;;;;;;;1.88;1.40;;;;;;;;;;5014588;28;20197;-78
2022/03/12 12:26:57;;;;;;;3.25;1.67;;;;;;;;;;5000736;28;20317;-78
2022/03/12 12:29:41;;;;;;;3.85;1.77;;;;;;;;;;5017429;28;20212;-78
2022/03/12 12:32:08;;;;;;;2.58;1.80;;;;;;;;;;5002156;28;20692;-78
2022/03/12 12:34:37;;;;;;;4.07;1.20;;;;;;;;;;5016913;28;20190;-78
2022/03/12 12:37:04;;;;;;;2.60;1.23;;;;;;;;;;5019482;28;20172;-78
2022/03/12 12:39:30;;;;;;;7.18;1.83;;;;;;;;;;5003112;28;20704;-78
2022/03/12 12:41:58;;;;;;;2.10;1.20;;;;;;;;;;5013432;28;20197;-78
2022/03/12 12:44:35;;;;;;;3.63;1.45;;;;;;;;;;5012795;28;20212;-78
2022/03/12 12:47:04;;;;;;;2.88;1.30;;;;;;;;;;4988354;28;20192;-78
2022/03/12 12:49:37;;;;;;;6.25;1.80;;;;;;;;;;4986700;28;20240;-78
2022/03/12 12:52:03;;;;;;;4.63;1.50;;;;;;;;;;5003823;28;20176;-78
2022/03/12 12:54:48;;;;;;;3.63;1.30;;;;;;;;;;4992415;28;20190;-78
2022/03/12 12:57:14;;;;;;;2.35;1.15;;;;;;;;;;5000884;28;20196;-79
2022/03/12 12:59:46;;;;;;;1.80;1.17;;;;;;;;;;4998583;28;20291;-78
2022/03/12 13:02:12;;;;;;;2.20;1.58;;;;;;;;;;4990164;28;20497;-78
2022/03/12 13:04:49;;;;;;;2.63;1.50;;;;;;;;;;5001312;28;20238;-78
2022/03/12 13:07:19;;;;;;;6.13;2.38;;;;;;;;;;4998700;28;20189;-77
2022/03/12 13:09:48;;;;;;;3.75;1.60;;;;;;;;;;5018419;28;20180;-78
2022/03/12 13:12:15;;;;;;;3.80;1.42;;;;;;;;;;5004800;28;20600;-78
2022/03/12 13:14:45;;;;;;;5.70;2.63;;;;;;;;;;5017751;28;20190;-78
2022/03/12 13:17:30;;;;;;;4.05;1.50;;;;;;;;;;5014728;28;20187;-78
2022/03/12 13:19:56;;;;;;;5.55;2.13;;;;;;;;;;5000156;28;20191;-78
2022/03/12 13:22:22;;;;;;;6.35;2.47;;;;;;;;;;5003253;28;20621;-77
2022/03/12 13:24:56;;;;;;;5.45;1.60;;;;;;;;;;5002088;28;20220;-78
2022/03/12 13:27:25;;;;;;;4.05;2.05;;;;;;;;;;5002763;28;20187;-78
2022/03/12 13:30:25;;;;;;;4.30;2.10;;;;;;;;;;4995933;28;20492;-78
2022/03/12 13:32:52;;;;;;;6.60;2.00;;;;;;;;;;4979528;28;20200;-77
2022/03/12 13:35:21;;;;;;;2.72;2.50;;;;;;;;;;4980912;28;20195;-78
2022/03/12 13:37:48;;;;;;;2.40;1.92;;;;;;;;;;4979522;28;20660;-77
2022/03/12 13:40:16;;;;;;;1.70;1.60;;;;;;;;;;4979838;28;20227;-78
2022/03/12 13:42:47;;;;;;;2.78;2.35;;;;;;;;;;4980265;28;20198;-78
2022/03/12 13:45:13;;;;;;;3.30;1.90;;;;;;;;;;4979949;28;20804;-78
2022/03/12 13:47:40;;;;;;;3.58;2.10;;;;;;;;;;4977960;28;20187;-78
2022/03/12 13:50:07;;;;;;;4.00;1.92;;;;;;;;;;4980633;28;20283;-78
2022/03/12 13:52:33;;;;;;;3.65;2.63;;;;;;;;;;4980755;28;20187;-78
2022/03/12 13:55:03;;;;;;;3.58;1.92;;;;;;;;;;4964967;28;20210;-78
2022/03/12 13:57:32;;;;;;;6.95;2.60;;;;;;;;;;4979621;28;20686;-78
2022/03/12 14:00:01;;;;;;;7.05;3.80;;;;;;;;;;4979390;28;20192;-78
2022/03/12 14:02:27;;;;;;;3.47;1.88;;;;;;;;;;4980096;28;20200;-78
2022/03/12 14:04:55;;;;;;;2.20;1.50;;;;;;;;;;4979644;28;20378;-78
2022/03/12 14:07:21;;;;;;;2.28;2.00;;;;;;;;;;4979383;28;20202;-78
2022/03/12 14:09:47;;;;;;;1.10;1.00;;;;;;;;;;4982436;28;20195;-78
2022/03/12 14:12:23;;;;;;;1.40;1.20;;;;;;;;;;4980395;28;20198;-78
2022/03/12 14:14:50;;;;;;;1.85;1.08;;;;;;;;;;4983375;28;20183;-79
2022/03/12 14:17:16;;;;;;;1.63;1.33;;;;;;;;;;4985023;28;20207;-78
2022/03/12 14:19:42;;;;;;;1.60;1.30;;;;;;;;;;4988093;28;20187;-78
2022/03/12 14:22:08;;;;;;;1.60;1.25;;;;;;;;;;4987088;28;20179;-78
2022/03/12 14:24:36;;;;;;;1.35;1.25;;;;;;;;;;4981892;28;20211;-78
2022/03/12 14:27:02;;;;;;;1.25;1.00;;;;;;;;;;5000293;28;20187;-79
2022/03/12 14:29:29;;;;;;;1.08;0.98;;;;;;;;;;4993580;28;20184;-78
2022/03/12 14:31:57;;;;;;;1.83;1.15;;;;;;;;;;4997201;28;20188;-78
2022/03/12 14:34:27;;;;;;;1.20;1.10;;;;;;;;;;4983798;28;20176;-78
2022/03/12 14:36:53;;;;;;;0.90;0.90;;;;;;;;;;4973856;28;20188;-79
2022/03/12 14:39:21;;;;;;;0.88;0.85;;;;;;;;;;4978106;28;20227;-77
2022/03/12 14:41:47;;;;;;;1.15;1.05;;;;;;;;;;4993862;28;20262;-79
2022/03/12 14:44:14;;;;;;;1.88;1.38;;;;;;;;;;4992954;28;20686;-77
2022/03/12 14:46:45;;;;;;;1.20;1.10;;;;;;;;;;4985639;28;20246;-77